sensor_id;sensor_type;location;lat;lon;timestamp;pressure;altitude;pressure_sealevel;temperature;humidity
13734;BME280;43298;52.560;13.508;2023-09-18T00:00:49;100447.44;;;18.94;100.00
13734;BME280;43298;52.560;13.508;2023-09-18T00:03:16;100452.06;;;18.90;100.00
13734;BME280;43298;52.560;13.508;2023-09-18T00:05:45;100438.16;;;18.90;100.00
13734;BME280;43298;52.560;13.508;2023-09-18T00:08:11;100431.81;;;18.92;100.00
13734;BME280;43298;52.560;13.508;2023-09-18T00:10:37;100430.41;;;18.88;100.00
13734;BME280;43298;52.560;13.508;2023-09-18T00:13:04;100426.50;;;18.83;100.00
13734;BME280;43298;52.560;13.508;2023-09-18T00:15:30;100427.56;;;18.80;100.00
13734;BME280;43298;52.560;13.508;2023-09-18T00:17:57;100432.78;;;18.80;100.00
13734;BME280;43298;52.560;13.508;2023-09-18T00:20:23;100430.94;;;18.71;100.00
13734;BME280;43298;52.560;13.508;2023-09-18T00:22:54;100428.31;;;18.71;100.00
13734;BME280;43298;52.560;13.508;2023-09-18T00:25:21;100426.41;;;18.62;100.00
13734;BME280;43298;52.560;13.508;2023-09-18T00:27:48;100431.41;;;18.65;100.00
13734;BME280;43298;52.560;13.508;2023-09-18T00:30:14;100426.69;;;18.59;100.00
13734;BME280;43298;52.560;13.508;2023-09-18T00:32:40;100421.03;;;18.64;100.00
13734;BME280;43298;52.560;13.508;2023-09-18T00:35:07;100414.28;;;18.61;100.00
13734;BME280;43298;52.560;13.508;2023-09-18T00:37:33;100408.34;;;18.59;100.00
13734;BME280;43298;52.560;13.508;2023-09-18T00:39:59;100405.72;;;18.59;100.00
13734;BME280;43298;52.560;13.508;2023-09-18T00:42:26;100408.47;;;18.58;100.00
13734;BME280;43298;52.560;13.508;2023-09-18T00:44:52;100409.28;;;18.58;100.00
13734;BME280;43298;52.560;13.508;2023-09-18T00:47:18;100409.03;;;18.61;100.00
13734;BME280;43298;52.560;13.508;2023-09-18T00:49:48;100403.56;;;18.64;100.00
13734;BME280;43298;52.560;13.508;2023-09-18T00:52:16;100397.72;;;18.61;100.00
13734;BME280;43298;52.560;13.508;2023-09-18T00:54:44;100399.88;;;18.56;100.00
13734;BME280;43298;52.560;13.508;2023-09-18T00:57:11;100392.88;;;18.56;100.00
13734;BME280;43298;52.560;13.508;2023-09-18T00:59:38;100386.22;;;18.52;100.00
13734;BME280;43298;52.560;13.508;2023-09-18T01:02:05;100385.72;;;18.47;100.00
13734;BME280;43298;52.560;13.508;2023-09-18T01:04:33;100390.28;;;18.45;100.00
13734;BME280;43298;52.560;13.508;2023-09-18T01:07:00;100393.94;;;18.43;100.00
13734;BME280;43298;52.560;13.508;2023-09-18T01:09:33;100396.69;;;18.41;100.00
13734;BME280;43298;52.560;13.508;2023-09-18T01:12:08;100397.75;;;18.39;100.00
13734;BME280;43298;52.560;13.508;2023-09-18T01:15:06;100391.00;;;18.36;100.00
13734;BME280;43298;52.560;13.508;2023-09-18T01:17:35;100383.47;;;18.32;100.00
13734;BME280;43298;52.560;13.508;2023-09-18T01:20:10;100379.91;;;18.33;100.00
13734;BME280;43298;52.560;13.508;2023-09-18T01:22:36;100378.84;;;18.35;100.00
13734;BME280;43298;52.560;13.508;2023-09-18T01:25:03;100368.81;;;18.29;100.00
13734;BME280;43298;52.560;13.508;2023-09-18T01:27:30;100366.31;;;18.28;100.00
13734;BME280;43298;52.560;13.508;2023-09-18T01:29:56;100367.16;;;18.28;100.00
13734;BME280;43298;52.560;13.508;2023-09-18T01:32:25;100371.69;;;18.26;100.00
13734;BME280;43298;52.560;13.508;2023-09-18T01:34:55;100372.19;;;18.20;100.00
13734;BME280;43298;52.560;13.508;2023-09-18T01:37:25;100364.19;;;18.11;100.00
13734;BME280;43298;52.560;13.508;2023-09-18T01:39:52;100362.88;;;18.16;100.00
13734;BME280;43298;52.560;13.508;2023-09-18T01:42:20;100365.25;;;18.19;100.00
13734;BME280;43298;52.560;13.508;2023-09-18T01:44:47;100366.22;;;18.18;100.00
13734;BME280;43298;52.560;13.508;2023-09-18T01:47:17;100360.78;;;18.10;100.00
13734;BME280;43298;52.560;13.508;2023-09-18T01:49:44;100360.28;;;18.05;100.00
13734;BME280;43298;52.560;13.508;2023-09-18T01:52:12;100361.72;;;17.98;100.00
13734;BME280;43298;52.560;13.508;2023-09-18T01:54:38;100357.78;;;17.92;100.00
13734;BME280;43298;52.560;13.508;2023-09-18T01:57:04;100361.38;;;17.92;100.00
13734;BME280;43298;52.560;13.508;2023-09-18T01:59:31;100354.25;;;17.94;100.00
13734;BME280;43298;52.560;13.508;2023-09-18T02:01:57;100357.22;;;17.89;100.00
13734;BME280;43298;52.560;13.508;2023-09-18T02:04:23;100346.97;;;17.86;100.00
13734;BME280;43298;52.560;13.508;2023-09-18T02:06:51;100337.47;;;17.85;100.00
13734;BME280;43298;52.560;13.508;2023-09-18T02:09:18;100339.13;;;17.86;100.00
13734;BME280;43298;52.560;13.508;2023-09-18T02:11:46;100329.84;;;17.82;100.00
13734;BME280;43298;52.560;13.508;2023-09-18T02:14:12;100316.66;;;17.83;100.00
13734;BME280;43298;52.560;13.508;2023-09-18T02:16:40;100311.66;;;17.80;100.00
13734;BME280;43298;52.560;13.508;2023-09-18T02:19:08;100310.25;;;17.76;100.00
13734;BME280;43298;52.560;13.508;2023-09-18T02:21:34;100298.13;;;17.75;100.00
13734;BME280;43298;52.560;13.508;2023-09-18T02:24:01;100295.00;;;17.70;100.00
13734;BME280;43298;52.560;13.508;2023-09-18T02:26:28;100295.25;;;17.67;100.00
13734;BME280;43298;52.560;13.508;2023-09-18T02:28:55;100301.78;;;17.62;100.00
13734;BME280;43298;52.560;13.508;2023-09-18T02:31:21;100295.38;;;17.55;100.00
13734;BME280;43298;52.560;13.508;2023-09-18T02:33:49;100291.34;;;17.51;100.00
13734;BME280;43298;52.560;13.508;2023-09-18T02:36:15;100288.94;;;17.48;100.00
13734;BME280;43298;52.560;13.508;2023-09-18T02:38:42;100287.53;;;17.44;100.00
13734;BME280;43298;52.560;13.508;2023-09-18T02:41:09;100284.91;;;17.44;100.00
13734;BME280;43298;52.560;13.508;2023-09-18T02:43:35;100283.94;;;17.45;100.00
13734;BME280;43298;52.560;13.508;2023-09-18T02:46:04;100272.91;;;17.41;100.00
13734;BME280;43298;52.560;13.508;2023-09-18T02:48:31;100271.84;;;17.44;100.00
13734;BME280;43298;52.560;13.508;2023-09-18T02:50:59;100269.53;;;17.39;100.00
13734;BME280;43298;52.560;13.508;2023-09-18T02:53:25;100263.13;;;17.32;100.00
13734;BME280;43298;52.560;13.508;2023-09-18T02:55:53;100258.72;;;17.33;100.00
13734;BME280;43298;52.560;13.508;2023-09-18T02:58:19;100259.81;;;17.30;100.00
13734;BME280;43298;52.560;13.508;2023-09-18T03:00:47;100253.97;;;17.27;100.00
13734;BME280;43298;52.560;13.508;2023-09-18T03:03:15;100253.16;;;17.26;100.00
13734;BME280;43298;52.560;13.508;2023-09-18T03:05:42;100253.38;;;17.23;100.00
13734;BME280;43298;52.560;13.508;2023-09-18T03:08:09;100252.66;;;17.21;100.00
13734;BME280;43298;52.560;13.508;2023-09-18T03:10:37;100246.22;;;17.14;100.00
13734;BME280;43298;52.560;13.508;2023-09-18T03:13:04;100237.81;;;17.11;100.00
13734;BME280;43298;52.560;13.508;2023-09-18T03:15:30;100228.31;;;17.10;100.00
13734;BME280;43298;52.560;13.508;2023-09-18T03:17:58;100233.78;;;17.07;100.00
13734;BME280;43298;52.560;13.508;2023-09-18T03:20:28;100230.94;;;17.10;100.00
13734;BME280;43298;52.560;13.508;2023-09-18T03:22:56;100223.91;;;17.10;100.00
13734;BME280;43298;52.560;13.508;2023-09-18T03:25:22;100230.44;;;17.05;100.00
13734;BME280;43298;52.560;13.508;2023-09-18T03:27:52;100225.44;;;17.02;100.00
13734;BME280;43298;52.560;13.508;2023-09-18T03:30:19;100223.78;;;17.01;100.00
13734;BME280;43298;52.560;13.508;2023-09-18T03:32:46;100227.47;;;16.98;100.00
13734;BME280;43298;52.560;13.508;2023-09-18T03:35:14;100221.63;;;16.95;100.00
13734;BME280;43298;52.560;13.508;2023-09-18T03:40:11;100221.16;;;16.90;100.00
13734;BME280;43298;52.560;13.508;2023-09-18T03:42:37;100225.06;;;16.84;100.00
13734;BME280;43298;52.560;13.508;2023-09-18T03:45:06;100212.84;;;16.85;100.00
13734;BME280;43298;52.560;13.508;2023-09-18T03:47:34;100215.69;;;16.82;100.00
13734;BME280;43298;52.560;13.508;2023-09-18T03:50:02;100213.06;;;16.82;100.00
13734;BME280;43298;52.560;13.508;2023-09-18T03:52:28;100213.06;;;16.82;100.00
13734;BME280;43298;52.560;13.508;2023-09-18T03:54:54;100212.22;;;16.81;100.00
13734;BME280;43298;52.560;13.508;2023-09-18T03:57:21;100206.53;;;16.76;100.00
13734;BME280;43298;52.560;13.508;2023-09-18T03:59:47;100208.41;;;16.74;100.00
13734;BME280;43298;52.560;13.508;2023-09-18T04:02:13;100199.03;;;16.72;100.00
13734;BME280;43298;52.560;13.508;2023-09-18T04:04:39;100198.19;;;16.71;100.00
13734;BME280;43298;52.560;13.508;2023-09-18T04:07:06;100199.88;;;16.72;100.00
13734;BME280;43298;52.560;13.508;2023-09-18T04:09:33;100190.03;;;16.76;100.00
13734;BME280;43298;52.560;13.508;2023-09-18T04:12:01;100192.16;;;16.71;100.00
13734;BME280;43298;52.560;13.508;2023-09-18T04:14:27;100184.66;;;16.66;100.00
13734;BME280;43298;52.560;13.508;2023-09-18T04:16:53;100179.34;;;16.68;100.00
13734;BME280;43298;52.560;13.508;2023-09-18T04:19:19;100187.16;;;16.68;100.00
13734;BME280;43298;52.560;13.508;2023-09-18T04:21:45;100182.06;;;16.66;100.00
13734;BME280;43298;52.560;13.508;2023-09-18T04:24:12;100178.47;;;16.67;100.00
13734;BME280;43298;52.560;13.508;2023-09-18T04:26:38;100174.22;;;16.66;100.00
13734;BME280;43298;52.560;13.508;2023-09-18T04:29:05;100176.09;;;16.64;100.00
13734;BME280;43298;52.560;13.508;2023-09-18T04:31:32;100166.72;;;16.62;100.00
13734;BME280;43298;52.560;13.508;2023-09-18T04:33:58;100161.50;;;16.62;100.00
13734;BME280;43298;52.560;13.508;2023-09-18T04:36:24;100170.06;;;16.64;100.00
13734;BME280;43298;52.560;13.508;2023-09-18T04:38:51;100164.00;;;16.63;100.00
13734;BME280;43298;52.560;13.508;2023-09-18T04:41:18;100166.72;;;16.62;100.00
13734;BME280;43298;52.560;13.508;2023-09-18T04:43:44;100156.06;;;16.65;100.00
13734;BME280;43298;52.560;13.508;2023-09-18T04:46:10;100160.44;;;16.64;100.00
13734;BME280;43298;52.560;13.508;2023-09-18T04:48:36;100164.84;;;16.64;100.00
13734;BME280;43298;52.560;13.508;2023-09-18T04:51:03;100159.97;;;16.70;100.00
13734;BME280;43298;52.560;13.508;2023-09-18T04:53:30;100160.31;;;16.66;100.00
13734;BME280;43298;52.560;13.508;2023-09-18T04:55:57;100158.44;;;16.68;100.00
13734;BME280;43298;52.560;13.508;2023-09-18T04:58:23;100158.31;;;16.69;100.00
13734;BME280;43298;52.560;13.508;2023-09-18T05:00:56;100155.84;;;16.68;100.00
13734;BME280;43298;52.560;13.508;2023-09-18T05:03:23;100151.41;;;16.68;100.00
13734;BME280;43298;52.560;13.508;2023-09-18T05:05:49;100147.88;;;16.69;100.00
13734;BME280;43298;52.560;13.508;2023-09-18T05:08:17;100152.50;;;16.77;100.00
13734;BME280;43298;52.560;13.508;2023-09-18T05:10:43;100145.88;;;16.84;100.00
13734;BME280;43298;52.560;13.508;2023-09-18T05:13:10;100142.06;;;16.88;100.00
13734;BME280;43298;52.560;13.508;2023-09-18T05:15:37;100137.69;;;16.99;100.00
13734;BME280;43298;52.560;13.508;2023-09-18T05:18:04;100137.78;;;17.09;100.00
13734;BME280;43298;52.560;13.508;2023-09-18T05:20:31;100131.63;;;17.10;100.00
13734;BME280;43298;52.560;13.508;2023-09-18T05:22:58;100132.69;;;17.18;100.00
13734;BME280;43298;52.560;13.508;2023-09-18T05:25:28;100128.28;;;17.30;100.00
13734;BME280;43298;52.560;13.508;2023-09-18T05:27:58;100132.59;;;17.42;100.00
13734;BME280;43298;52.560;13.508;2023-09-18T05:30:30;100134.34;;;17.52;100.00
13734;BME280;43298;52.560;13.508;2023-09-18T05:33:01;100130.59;;;17.66;100.00
13734;BME280;43298;52.560;13.508;2023-09-18T05:35:34;100122.16;;;17.73;100.00
13734;BME280;43298;52.560;13.508;2023-09-18T05:38:03;100122.34;;;17.81;100.00
13734;BME280;43298;52.560;13.508;2023-09-18T05:40:29;100125.53;;;17.96;100.00
13734;BME280;43298;52.560;13.508;2023-09-18T05:42:56;100125.47;;;18.07;100.00
13734;BME280;43298;52.560;13.508;2023-09-18T05:45:23;100123.53;;;18.20;100.00
13734;BME280;43298;52.560;13.508;2023-09-18T05:47:50;100120.00;;;18.31;100.00
13734;BME280;43298;52.560;13.508;2023-09-18T05:50:16;100123.19;;;18.45;100.00
13734;BME280;43298;52.560;13.508;2023-09-18T05:52:51;100118.41;;;18.60;100.00
13734;BME280;43298;52.560;13.508;2023-09-18T05:55:18;100116.44;;;18.73;100.00
13734;BME280;43298;52.560;13.508;2023-09-18T05:57:44;100122.16;;;18.87;100.00
13734;BME280;43298;52.560;13.508;2023-09-18T06:00:11;100127.44;;;18.97;100.00
13734;BME280;43298;52.560;13.508;2023-09-18T06:02:42;100126.38;;;19.09;100.00
13734;BME280;43298;52.560;13.508;2023-09-18T06:05:10;100121.16;;;19.18;100.00
13734;BME280;43298;52.560;13.508;2023-09-18T06:07:38;100110.75;;;19.28;100.00
13734;BME280;43298;52.560;13.508;2023-09-18T06:10:05;100107.22;;;19.48;100.00
13734;BME280;43298;52.560;13.508;2023-09-18T06:12:31;100108.63;;;19.80;100.00
13734;BME280;43298;52.560;13.508;2023-09-18T06:14:57;100108.66;;;20.18;100.00
13734;BME280;43298;52.560;13.508;2023-09-18T06:17:24;100111.41;;;20.36;100.00
13734;BME280;43298;52.560;13.508;2023-09-18T06:19:50;100117.63;;;20.44;100.00
13734;BME280;43298;52.560;13.508;2023-09-18T06:22:18;100115.28;;;20.32;100.00
13734;BME280;43298;52.560;13.508;2023-09-18T06:24:44;100119.00;;;20.29;100.00
13734;BME280;43298;52.560;13.508;2023-09-18T06:27:10;100108.63;;;20.09;100.00
13734;BME280;43298;52.560;13.508;2023-09-18T06:29:37;100110.88;;;20.13;100.00
13734;BME280;43298;52.560;13.508;2023-09-18T06:32:07;100108.63;;;20.09;100.00
13734;BME280;43298;52.560;13.508;2023-09-18T06:34:33;100107.53;;;20.11;100.00
13734;BME280;43298;52.560;13.508;2023-09-18T06:36:59;100104.66;;;20.14;100.00
13734;BME280;43298;52.560;13.508;2023-09-18T06:39:25;100103.41;;;20.18;100.00
13734;BME280;43298;52.560;13.508;2023-09-18T06:41:52;100109.59;;;20.27;100.00
13734;BME280;43298;52.560;13.508;2023-09-18T06:44:18;100106.41;;;20.42;100.00
13734;BME280;43298;52.560;13.508;2023-09-18T06:46:44;100089.47;;;20.74;100.00
13734;BME280;43298;52.560;13.508;2023-09-18T06:49:10;100096.88;;;20.88;100.00
13734;BME280;43298;52.560;13.508;2023-09-18T06:51:36;100093.19;;;21.08;100.00
13734;BME280;43298;52.560;13.508;2023-09-18T06:54:02;100094.13;;;21.43;100.00
13734;BME280;43298;52.560;13.508;2023-09-18T06:56:29;100086.81;;;21.55;100.00
13734;BME280;43298;52.560;13.508;2023-09-18T06:58:55;100081.91;;;21.87;100.00
13734;BME280;43298;52.560;13.508;2023-09-18T07:01:22;100093.56;;;22.02;100.00
13734;BME280;43298;52.560;13.508;2023-09-18T07:03:50;100093.34;;;22.13;100.00
13734;BME280;43298;52.560;13.508;2023-09-18T07:06:17;100095.00;;;22.39;100.00
13734;BME280;43298;52.560;13.508;2023-09-18T07:08:46;100087.53;;;22.78;100.00
13734;BME280;43298;52.560;13.508;2023-09-18T07:11:13;100096.91;;;22.72;100.00
13734;BME280;43298;52.560;13.508;2023-09-18T07:13:39;100098.06;;;22.78;100.00
13734;BME280;43298;52.560;13.508;2023-09-18T07:16:06;100092.34;;;22.82;100.00
13734;BME280;43298;52.560;13.508;2023-09-18T07:18:32;100095.28;;;22.79;100.00
13734;BME280;43298;52.560;13.508;2023-09-18T07:20:59;100092.84;;;22.86;100.00
13734;BME280;43298;52.560;13.508;2023-09-18T07:23:25;100091.28;;;23.01;100.00
13734;BME280;43298;52.560;13.508;2023-09-18T07:25:51;100084.00;;;22.95;100.00
13734;BME280;43298;52.560;13.508;2023-09-18T07:28:17;100076.03;;;23.20;100.00
13734;BME280;43298;52.560;13.508;2023-09-18T07:30:45;100084.53;;;23.48;100.00
13734;BME280;43298;52.560;13.508;2023-09-18T07:33:12;100086.22;;;23.81;100.00
13734;BME280;43298;52.560;13.508;2023-09-18T07:35:41;100097.34;;;23.93;100.00
13734;BME280;43298;52.560;13.508;2023-09-18T07:38:07;100099.13;;;23.84;100.00
13734;BME280;43298;52.560;13.508;2023-09-18T07:40:33;100100.47;;;23.96;100.00
13734;BME280;43298;52.560;13.508;2023-09-18T07:43:00;100106.44;;;24.06;100.00
13734;BME280;43298;52.560;13.508;2023-09-18T07:45:26;100104.94;;;23.96;100.00
13734;BME280;43298;52.560;13.508;2023-09-18T07:47:52;100102.81;;;24.15;100.00
13734;BME280;43298;52.560;13.508;2023-09-18T07:50:18;100108.72;;;24.41;100.00
13734;BME280;43298;52.560;13.508;2023-09-18T07:52:44;100117.13;;;24.61;100.00
13734;BME280;43298;52.560;13.508;2023-09-18T07:55:11;100124.91;;;24.46;100.00
13734;BME280;43298;52.560;13.508;2023-09-18T07:57:37;100128.06;;;24.74;100.00
13734;BME280;43298;52.560;13.508;2023-09-18T08:00:04;100139.28;;;24.52;100.00
13734;BME280;43298;52.560;13.508;2023-09-18T08:02:34;100137.81;;;24.65;100.00
13734;BME280;43298;52.560;13.508;2023-09-18T08:05:01;100137.94;;;24.56;100.00
13734;BME280;43298;52.560;13.508;2023-09-18T08:07:28;100136.47;;;24.61;100.00
13734;BME280;43298;52.560;13.508;2023-09-18T08:09:54;100134.25;;;24.97;100.00
13734;BME280;43298;52.560;13.508;2023-09-18T08:12:21;100135.44;;;24.94;100.00
13734;BME280;43298;52.560;13.508;2023-09-18T08:14:47;100133.66;;;25.25;100.00
13734;BME280;43298;52.560;13.508;2023-09-18T08:17:14;100143.75;;;25.38;100.00
13734;BME280;43298;52.560;13.508;2023-09-18T08:19:40;100136.94;;;25.43;100.00
13734;BME280;43298;52.560;13.508;2023-09-18T08:22:07;100133.34;;;25.59;100.00
13734;BME280;43298;52.560;13.508;2023-09-18T08:24:34;100130.63;;;25.75;100.00
13734;BME280;43298;52.560;13.508;2023-09-18T08:27:00;100128.06;;;25.89;100.00
13734;BME280;43298;52.560;13.508;2023-09-18T08:29:26;100125.34;;;26.20;100.00
13734;BME280;43298;52.560;13.508;2023-09-18T08:31:52;100123.59;;;26.13;100.00
13734;BME280;43298;52.560;13.508;2023-09-18T08:34:18;100125.97;;;26.22;100.00
13734;BME280;43298;52.560;13.508;2023-09-18T08:36:44;100126.66;;;26.24;100.00
13734;BME280;43298;52.560;13.508;2023-09-18T08:39:10;100128.53;;;26.16;100.00
13734;BME280;43298;52.560;13.508;2023-09-18T08:41:42;100126.75;;;26.31;100.00
13734;BME280;43298;52.560;13.508;2023-09-18T08:44:09;100132.53;;;26.34;100.00
13734;BME280;43298;52.560;13.508;2023-09-18T08:46:38;100120.91;;;27.01;100.00
13734;BME280;43298;52.560;13.508;2023-09-18T08:49:05;100142.25;;;26.93;100.00
13734;BME280;43298;52.560;13.508;2023-09-18T08:51:34;100136.47;;;26.75;100.00
13734;BME280;43298;52.560;13.508;2023-09-18T08:54:01;100141.13;;;27.17;100.00
13734;BME280;43298;52.560;13.508;2023-09-18T08:56:29;100151.19;;;27.07;100.00
13734;BME280;43298;52.560;13.508;2023-09-18T08:58:56;100138.31;;;27.33;100.00
13734;BME280;43298;52.560;13.508;2023-09-18T09:01:24;100155.41;;;27.59;100.00
13734;BME280;43298;52.560;13.508;2023-09-18T09:03:50;100154.78;;;27.93;100.00
13734;BME280;43298;52.560;13.508;2023-09-18T09:06:17;100162.88;;;27.85;100.00
13734;BME280;43298;52.560;13.508;2023-09-18T09:08:43;100150.59;;;28.26;100.00
13734;BME280;43298;52.560;13.508;2023-09-18T09:11:09;100159.34;;;28.20;100.00
13734;BME280;43298;52.560;13.508;2023-09-18T09:13:36;100144.72;;;27.74;100.00
13734;BME280;43298;52.560;13.508;2023-09-18T09:16:02;100155.16;;;27.75;100.00
13734;BME280;43298;52.560;13.508;2023-09-18T09:18:30;100154.53;;;28.09;100.00
13734;BME280;43298;52.560;13.508;2023-09-18T09:21:02;100155.94;;;28.05;100.00
13734;BME280;43298;52.560;13.508;2023-09-18T09:23:50;100151.91;;;27.59;100.00
13734;BME280;43298;52.560;13.508;2023-09-18T09:26:22;100148.97;;;28.04;100.00
13734;BME280;43298;52.560;13.508;2023-09-18T09:28:49;100148.31;;;28.23;100.00
13734;BME280;43298;52.560;13.508;2023-09-18T09:31:29;100151.16;;;28.42;100.00
13734;BME280;43298;52.560;13.508;2023-09-18T09:33:56;100152.56;;;28.17;100.00
13734;BME280;43298;52.560;13.508;2023-09-18T09:36:24;100158.44;;;28.55;100.00
13734;BME280;43298;52.560;13.508;2023-09-18T09:38:57;100146.03;;;27.99;100.00
13734;BME280;43298;52.560;13.508;2023-09-18T09:41:24;100129.63;;;27.60;100.00
13734;BME280;43298;52.560;13.508;2023-09-18T09:43:52;100127.50;;;27.70;100.00
13734;BME280;43298;52.560;13.508;2023-09-18T09:46:18;100132.56;;;28.21;100.00
13734;BME280;43298;52.560;13.508;2023-09-18T09:49:00;100128.44;;;28.19;100.00
13734;BME280;43298;52.560;13.508;2023-09-18T09:51:27;100123.44;;;28.09;100.00
13734;BME280;43298;52.560;13.508;2023-09-18T09:53:54;100123.25;;;28.11;100.00
13734;BME280;43298;52.560;13.508;2023-09-18T09:56:20;100119.16;;;27.87;100.00
13734;BME280;43298;52.560;13.508;2023-09-18T09:59:02;100128.31;;;27.85;100.00
13734;BME280;43298;52.560;13.508;2023-09-18T10:01:31;100129.25;;;27.63;100.00
13734;BME280;43298;52.560;13.508;2023-09-18T10:03:59;100123.94;;;27.63;100.00
13734;BME280;43298;52.560;13.508;2023-09-18T10:06:27;100140.63;;;27.36;100.00
13734;BME280;43298;52.560;13.508;2023-09-18T10:08:56;100139.66;;;27.58;100.00
13734;BME280;43298;52.560;13.508;2023-09-18T10:11:22;100143.09;;;27.73;100.00
13734;BME280;43298;52.560;13.508;2023-09-18T10:14:03;100145.81;;;28.15;100.00
13734;BME280;43298;52.560;13.508;2023-09-18T10:16:31;100146.69;;;28.01;100.00
13734;BME280;43298;52.560;13.508;2023-09-18T10:19:06;100137.16;;;27.92;100.00
13734;BME280;43298;52.560;13.508;2023-09-18T10:21:53;100129.66;;;27.81;100.00
13734;BME280;43298;52.560;13.508;2023-09-18T10:24:28;100125.22;;;27.67;100.00
13734;BME280;43298;52.560;13.508;2023-09-18T10:27:01;100131.69;;;27.58;100.00
13734;BME280;43298;52.560;13.508;2023-09-18T10:29:34;100134.81;;;27.47;100.00
13734;BME280;43298;52.560;13.508;2023-09-18T10:32:07;100129.16;;;27.35;100.00
13734;BME280;43298;52.560;13.508;2023-09-18T10:34:36;100126.88;;;27.18;100.00
13734;BME280;43298;52.560;13.508;2023-09-18T10:37:04;100119.63;;;27.26;100.00
13734;BME280;43298;52.560;13.508;2023-09-18T10:39:38;100138.28;;;27.47;100.00
13734;BME280;43298;52.560;13.508;2023-09-18T10:42:08;100144.00;;;27.30;100.00
13734;BME280;43298;52.560;13.508;2023-09-18T10:44:35;100144.06;;;27.51;100.00
13734;BME280;43298;52.560;13.508;2023-09-18T10:47:03;100152.22;;;27.49;100.00
13734;BME280;43298;52.560;13.508;2023-09-18T10:49:51;100154.81;;;27.28;100.00
13734;BME280;43298;52.560;13.508;2023-09-18T10:52:17;100153.13;;;27.42;100.00
13734;BME280;43298;52.560;13.508;2023-09-18T10:54:44;100160.91;;;27.58;100.00
13734;BME280;43298;52.560;13.508;2023-09-18T10:57:11;100151.31;;;27.78;100.00
13734;BME280;43298;52.560;13.508;2023-09-18T10:59:44;100157.69;;;27.62;100.00
13734;BME280;43298;52.560;13.508;2023-09-18T11:02:13;100149.44;;;27.57;100.00
13734;BME280;43298;52.560;13.508;2023-09-18T11:04:44;100136.28;;;27.49;100.00
13734;BME280;43298;52.560;13.508;2023-09-18T11:07:24;100135.84;;;27.31;100.00
13734;BME280;43298;52.560;13.508;2023-09-18T11:09:51;100130.25;;;27.26;100.00
13734;BME280;43298;52.560;13.508;2023-09-18T11:12:17;100131.75;;;27.29;100.00
13734;BME280;43298;52.560;13.508;2023-09-18T11:17:39;100132.72;;;27.28;100.00
13734;BME280;43298;52.560;13.508;2023-09-18T11:20:09;100135.78;;;27.25;100.00
13734;BME280;43298;52.560;13.508;2023-09-18T11:22:55;100126.13;;;27.09;100.00
13734;BME280;43298;52.560;13.508;2023-09-18T11:25:39;100135.19;;;27.15;100.00
13734;BME280;43298;52.560;13.508;2023-09-18T11:30:54;100138.69;;;27.30;100.00
13734;BME280;43298;52.560;13.508;2023-09-18T11:33:41;100148.72;;;27.20;100.00
13734;BME280;43298;52.560;13.508;2023-09-18T11:36:29;100138.84;;;27.14;100.00
13734;BME280;43298;52.560;13.508;2023-09-18T11:38:59;100139.31;;;27.03;100.00
13734;BME280;43298;52.560;13.508;2023-09-18T11:41:34;100138.88;;;26.99;100.00
13734;BME280;43298;52.560;13.508;2023-09-18T11:46:41;100146.81;;;26.99;100.00
13734;BME280;43298;52.560;13.508;2023-09-18T11:49:12;100151.13;;;26.86;100.00
13734;BME280;43298;52.560;13.508;2023-09-18T11:51:38;100143.16;;;26.86;100.00
13734;BME280;43298;52.560;13.508;2023-09-18T11:54:07;100136.75;;;26.95;100.00
13734;BME280;43298;52.560;13.508;2023-09-18T11:56:33;100134.28;;;26.79;100.00
13734;BME280;43298;52.560;13.508;2023-09-18T11:58:59;100138.00;;;26.70;100.00
13734;BME280;43298;52.560;13.508;2023-09-18T12:01:30;100134.25;;;26.64;100.00
13734;BME280;43298;52.560;13.508;2023-09-18T12:04:04;100128.16;;;26.56;100.00
13734;BME280;43298;52.560;13.508;2023-09-18T12:06:36;100127.34;;;26.55;100.00
13734;BME280;43298;52.560;13.508;2023-09-18T12:09:05;100121.59;;;26.52;100.00
13734;BME280;43298;52.560;13.508;2023-09-18T12:11:32;100104.53;;;26.69;100.00
13734;BME280;43298;52.560;13.508;2023-09-18T12:14:01;100106.53;;;26.67;100.00
13734;BME280;43298;52.560;13.508;2023-09-18T12:16:30;100096.13;;;26.80;100.00
13734;BME280;43298;52.560;13.508;2023-09-18T12:18:56;100099.41;;;26.82;100.00
13734;BME280;43298;52.560;13.508;2023-09-18T12:21:23;100110.38;;;27.08;100.00
13734;BME280;43298;52.560;13.508;2023-09-18T12:23:49;100104.09;;;27.23;100.00
13734;BME280;43298;52.560;13.508;2023-09-18T12:26:17;100099.91;;;27.21;100.00
13734;BME280;43298;52.560;13.508;2023-09-18T12:28:46;100094.25;;;27.38;100.00
13734;BME280;43298;52.560;13.508;2023-09-18T12:31:13;100098.47;;;27.33;100.00
13734;BME280;43298;52.560;13.508;2023-09-18T12:33:41;100087.78;;;27.62;100.00
13734;BME280;43298;52.560;13.508;2023-09-18T12:36:08;100092.06;;;27.63;100.00
13734;BME280;43298;52.560;13.508;2023-09-18T12:38:35;100091.72;;;27.51;100.00
13734;BME280;43298;52.560;13.508;2023-09-18T12:41:03;100084.88;;;27.57;100.00
13734;BME280;43298;52.560;13.508;2023-09-18T12:43:42;100086.78;;;27.27;100.00
13734;BME280;43298;52.560;13.508;2023-09-18T12:46:10;100076.84;;;27.21;100.00